Time;durP1;ratioP1;P1;durP2;ratioP2;P2;SDS_P1;SDS_P2;PMS_P1;PMS_P2;Temp;Humidity;BMP_temperature;BMP_pressure;BME280_temperature;BME280_humidity;BME280_pressure;Samples;Min_cycle;Max_cycle;Signal;HPM_P1;HPM_P2
2022/06/05 00:02:19;;;;;;;13.85;11.15;;;11.90;99.90;;;12.71;100.00;99494.63;5061922;27;130066;-72
2022/06/05 00:04:55;;;;;;;16.25;13.57;;;11.80;99.90;;;12.57;100.00;99498.38;5063212;27;129066;-72
2022/06/05 00:07:32;;;;;;;14.43;12.23;;;11.80;99.90;;;12.26;100.00;99500.50;5045216;27;121021;-70
2022/06/05 00:10:10;;;;;;;15.65;12.80;;;11.70;99.90;;;12.11;100.00;99497.19;5061440;27;121976;-76
2022/06/05 00:12:47;;;;;;;15.73;13.10;;;11.60;99.90;;;12.14;100.00;99495.72;5061300;27;131430;-71
2022/06/05 00:15:17;;;;;;;15.90;13.10;;;11.50;99.90;;;12.09;100.00;99494.00;5059859;27;129846;-70
2022/06/05 00:17:45;;;;;;;13.60;11.10;;;11.50;99.90;;;12.07;100.00;99495.41;5061473;27;120225;-73
2022/06/05 00:20:15;;;;;;;15.02;11.30;;;11.40;99.90;;;11.98;100.00;99500.84;5063546;27;119189;-71
2022/06/05 00:22:44;;;;;;;13.65;10.70;;;11.40;99.90;;;11.96;100.00;99500.38;5045995;27;129230;-70
2022/06/05 00:25:13;;;;;;;13.95;10.98;;;11.40;99.90;;;12.04;100.00;99505.00;5061590;27;130825;-71
2022/06/05 00:27:51;;;;;;;14.43;11.20;;;11.30;99.90;;;12.01;100.00;99497.50;5062830;27;120367;-70
2022/06/05 00:30:29;;;;;;;13.65;10.57;;;11.30;99.90;;;11.82;100.00;99495.88;5062882;27;121077;-71
2022/06/05 00:33:06;;;;;;;13.80;10.95;;;11.20;99.90;;;11.83;100.00;99492.03;5063989;27;129786;-71
2022/06/05 00:35:43;;;;;;;14.20;11.00;;;11.20;99.90;;;11.72;100.00;99496.19;5064211;27;130050;-69
2022/06/05 00:38:19;;;;;;;14.65;11.05;;;11.20;99.90;;;11.72;100.00;99487.22;5064100;27;119915;-70
2022/06/05 00:41:30;;;;;;;14.35;11.85;;;11.20;99.90;;;11.75;100.00;99492.84;5066265;27;118385;-70
2022/06/05 00:44:03;;;;;;;15.07;12.52;;;11.10;99.90;;;11.79;100.00;99493.78;5060674;27;130637;-71
2022/06/05 00:46:36;;;;;;;14.90;11.70;;;11.10;99.90;;;11.76;100.00;99496.34;5059946;27;129752;-70
2022/06/05 00:49:07;;;;;;;14.43;12.05;;;11.10;99.90;;;11.68;100.00;99495.22;5060828;27;119735;-72
2022/06/05 00:51:36;;;;;;;13.57;11.35;;;11.00;99.90;;;11.71;100.00;99488.38;5061543;27;120513;-72
2022/06/05 00:54:06;;;;;;;15.90;11.68;;;11.00;99.90;;;11.64;100.00;99491.53;5045557;27;128977;-70
2022/06/05 00:56:35;;;;;;;14.07;11.30;;;10.90;99.90;;;11.62;100.00;99496.50;5062453;27;129047;-72
2022/06/05 00:59:03;;;;;;;17.45;12.65;;;10.90;99.90;;;11.53;100.00;99488.34;5058548;27;122170;-72
2022/06/05 01:01:34;;;;;;;13.85;11.82;;;11.00;99.90;;;11.49;100.00;99499.03;5061984;27;122418;-72
2022/06/05 01:04:03;;;;;;;15.98;12.30;;;10.90;99.90;;;11.47;100.00;99501.28;5060395;27;130066;-73
2022/06/05 01:06:31;;;;;;;15.65;12.02;;;10.80;99.90;;;11.39;100.00;99504.78;5076203;27;130164;-72
2022/06/05 01:09:00;;;;;;;15.05;12.88;;;10.70;99.90;;;11.38;100.00;99497.75;5060838;27;119788;-71
2022/06/05 01:11:39;;;;;;;15.15;12.13;;;10.70;99.90;;;11.39;100.00;99502.06;5060979;27;119540;-72
2022/06/05 01:14:22;;;;;;;15.90;12.30;;;10.60;99.90;;;11.40;100.00;99500.94;5062846;27;130304;-71
2022/06/05 01:16:59;;;;;;;16.55;11.88;;;10.50;99.90;;;11.38;100.00;99497.75;5048510;27;128533;-72
2022/06/05 01:19:46;;;;;;;16.27;12.80;;;10.50;99.90;;;11.36;100.00;99508.13;5064861;27;120068;-70
2022/06/05 01:23:27;;;;;;;18.02;13.77;;;10.60;99.90;;;11.28;100.00;99503.47;5062715;27;120158;-72
2022/06/05 01:26:17;;;;;;;15.95;11.63;;;10.60;99.90;;;11.29;100.00;99505.06;5016468;27;129405;-74
2022/06/05 01:28:56;;;;;;;18.52;13.25;;;10.50;99.90;;;11.30;100.00;99512.13;5060368;27;129865;-71
2022/06/05 01:31:32;;;;;;;19.70;13.93;;;10.50;99.90;;;11.23;100.00;99517.19;5060785;27;119771;-70
2022/06/05 01:34:13;;;;;;;15.98;12.80;;;10.50;99.90;;;11.13;100.00;99510.16;5059592;27;119461;-74
2022/06/05 01:36:48;;;;;;;15.18;12.30;;;10.50;99.90;;;11.07;100.00;99509.47;5076267;27;130382;-70
2022/06/05 01:39:24;;;;;;;14.20;11.20;;;10.40;99.90;;;11.12;100.00;99513.97;5058716;27;129885;-71
2022/06/05 01:41:56;;;;;;;;;;;10.40;99.90;;;11.02;100.00;99512.34;5062810;27;118410;-69
2022/06/05 01:44:33;;;;;;;14.82;12.02;;;10.40;99.90;;;11.07;100.00;99514.91;5060857;27;119500;-69
2022/06/05 01:47:08;;;;;;;16.98;13.18;;;10.30;99.90;;;11.10;100.00;99508.06;5075510;27;130200;-71
2022/06/05 01:49:45;;;;;;;16.45;12.80;;;10.50;99.90;;;11.12;100.00;99511.25;5078836;27;129121;-70
2022/06/05 01:52:19;;;;;;;16.23;13.48;;;10.40;99.90;;;11.01;100.00;99510.75;5061084;27;121675;-71
2022/06/05 01:54:54;;;;;;;17.67;13.38;;;10.40;99.90;;;11.05;100.00;99511.72;5058998;27;122469;-69
2022/06/05 01:57:26;;;;;;;17.10;13.13;;;10.40;99.90;;;11.01;100.00;99513.44;5059385;27;130138;-71
2022/06/05 02:00:02;;;;;;;18.35;13.27;;;10.40;99.90;;;11.00;100.00;99517.31;5060294;27;129664;-70
2022/06/05 02:02:39;;;;;;;17.63;13.05;;;10.40;99.90;;;10.97;100.00;99515.22;5062537;27;120108;-74
2022/06/05 02:05:13;;;;;;;14.40;11.68;;;10.40;99.90;;;11.03;100.00;99513.13;5060234;27;119691;-71
2022/06/05 02:07:47;;;;;;;16.15;12.55;;;10.40;99.90;;;11.11;100.00;99520.50;5078990;27;130615;-74
2022/06/05 02:10:25;;;;;;;16.58;12.48;;;10.30;99.90;;;11.07;100.00;99520.34;5046562;27;129157;-72
2022/06/05 02:12:56;;;;;;;18.55;11.90;;;10.30;99.90;;;11.07;100.00;99519.56;5060612;27;119699;-73
2022/06/05 02:15:26;;;;;;;14.00;11.80;;;10.30;99.90;;;11.17;100.00;99523.88;5059438;27;119612;-71
2022/06/05 02:17:55;;;;;;;13.63;11.20;;;10.30;99.90;;;11.27;100.00;99524.41;5043848;27;128923;-73
2022/06/05 02:20:24;;;;;;;16.92;11.40;;;10.40;99.90;;;11.38;100.00;99530.34;5059730;27;129984;-72
2022/06/05 02:22:54;;;;;;;16.83;12.70;;;10.50;99.90;;;11.39;100.00;99526.53;5044478;27;118668;-70
2022/06/05 02:25:26;;;;;;;15.55;11.90;;;10.50;99.90;;;11.53;100.00;99526.41;5061585;27;119294;-71
2022/06/05 02:28:01;;;;;;;14.23;11.05;;;10.60;99.90;;;11.60;100.00;99528.63;5059211;27;130160;-72
2022/06/05 02:30:40;;;;;;;15.35;11.10;;;10.60;99.90;;;11.56;100.00;99530.38;5059390;27;130059;-70
2022/06/05 02:33:18;;;;;;;12.95;10.00;;;10.60;99.90;;;11.53;100.00;99537.28;5061536;27;120065;-72
2022/06/05 02:35:58;;;;;;;15.00;11.52;;;10.70;99.90;;;11.59;100.00;99535.97;5059901;27;120065;-74
2022/06/05 02:38:45;;;;;;;13.95;10.32;;;10.70;99.90;;;11.62;100.00;99532.63;5060698;27;129801;-74
2022/06/05 02:41:25;;;;;;;14.55;10.00;;;10.70;99.90;;;11.66;100.00;99536.31;5061073;27;128186;-72
2022/06/05 02:47:00;;;;;;;13.63;10.07;;;10.70;99.90;;;11.78;100.00;99546.59;5055235;27;122016;-72
2022/06/05 02:49:32;;;;;;;;;;;10.70;99.90;;;11.74;100.00;99540.16;5061731;27;130364;-70
2022/06/05 02:52:06;;;;;;;14.98;10.10;;;10.80;99.90;;;11.90;100.00;99535.06;5059195;27;130068;-71
2022/06/05 02:54:41;;;;;;;11.98;9.05;;;10.90;99.90;;;12.04;100.00;99545.81;5059319;27;120154;-72
2022/06/05 02:57:10;;;;;;;11.32;8.20;;;10.90;99.90;;;12.18;100.00;99541.00;5044313;27;118577;-71
2022/06/05 02:59:40;;;;;;;9.63;6.80;;;11.00;99.90;;;12.31;100.00;99549.31;5074698;27;131595;-71
2022/06/05 03:04:55;;;;;;;8.53;5.57;;;11.30;99.90;;;13.71;100.00;99557.00;5059266;27;119812;-71
2022/06/05 03:07:23;;;;;;;7.68;4.97;;;11.90;99.90;;;15.07;100.00;99559.16;5044075;27;118244;-71
2022/06/05 03:09:51;;;;;;;6.85;3.83;;;12.70;99.90;;;16.36;91.82;99547.78;5057367;27;129959;-71
2022/06/05 03:12:20;;;;;;;5.53;3.22;;;13.10;99.90;;;17.64;83.25;99561.56;5058913;27;129851;-71
2022/06/05 03:14:50;;;;;;;5.53;3.55;;;13.50;99.90;;;19.05;76.60;99555.00;5058892;27;120453;-75
2022/06/05 03:17:18;;;;;;;7.35;3.28;;;14.00;64.70;;;20.08;70.80;99554.94;5058810;27;120071;-72
2022/06/05 03:19:47;;;;;;;5.30;3.40;;;14.30;1.00;;;20.90;65.75;99553.50;5058654;27;130606;-71
2022/06/05 03:22:16;;;;;;;5.10;2.80;;;14.70;1.00;;;20.98;63.97;99550.41;5058760;27;129565;-72
2022/06/05 03:24:44;;;;;;;4.97;3.33;;;14.90;1.00;;;20.33;63.16;99556.41;5059311;27;119878;-73
2022/06/05 03:27:14;;;;;;;6.38;3.83;;;14.00;1.00;;;19.69;64.44;99557.94;5063942;27;119319;-73
2022/06/05 03:29:42;;;;;;;5.65;4.28;;;13.70;1.00;;;18.98;66.75;99552.09;5060173;27;130325;-72
2022/06/05 03:32:12;;;;;;;7.22;4.30;;;13.50;1.00;;;18.22;68.97;99545.22;5060494;27;129358;-72
2022/06/05 03:34:41;;;;;;;7.35;4.68;;;13.20;1.00;;;17.57;71.78;99557.50;5058563;27;121905;-71
2022/06/05 03:37:10;;;;;;;5.78;4.68;;;13.00;1.00;;;16.99;74.30;99549.88;5061273;27;122839;-72
2022/06/05 03:39:38;;;;;;;6.75;4.93;;;12.90;1.00;;;16.69;75.90;99554.97;5058960;27;129935;-72
2022/06/05 03:42:07;;;;;;;7.15;5.20;;;12.90;1.00;;;16.29;78.24;99551.13;5058172;27;129855;-74
2022/06/05 03:44:38;;;;;;;6.75;5.43;;;12.80;1.00;;;15.91;80.65;99548.84;5060447;27;119497;-73
2022/06/05 03:47:08;;;;;;;6.90;5.00;;;12.60;1.00;;;15.85;81.58;99544.78;5060528;27;118639;-74
2022/06/05 03:49:38;;;;;;;6.28;5.15;;;12.80;1.00;;;15.71;82.76;99539.66;5058190;27;130047;-73
2022/06/05 03:52:09;;;;;;;8.65;5.53;;;12.90;1.00;;;15.57;83.55;99531.81;5058406;27;130018;-72
2022/06/05 03:54:39;;;;;;;8.20;5.93;;;12.80;1.00;;;15.56;83.31;99546.63;5058618;27;119997;-73
2022/06/05 03:57:09;;;;;;;8.60;5.60;;;12.90;1.00;;;15.52;83.82;99541.06;5044048;27;119563;-76
2022/06/05 03:59:38;;;;;;;7.03;5.60;;;12.90;1.00;;;15.50;84.05;99543.31;5044170;27;129355;-75
2022/06/05 04:02:07;;;;;;;8.57;5.75;;;12.80;1.00;;;15.57;84.37;99542.75;5061436;27;128836;-73
2022/06/05 04:04:37;;;;;;;12.70;6.55;;;13.00;1.00;;;15.64;84.47;99548.44;5062085;27;119116;-74
2022/06/05 04:07:06;;;;;;;8.73;5.85;;;13.20;1.00;;;15.55;85.22;99553.22;5061529;27;118939;-77
2022/06/05 04:09:34;;;;;;;8.77;5.82;;;13.30;1.00;;;15.10;86.18;99558.47;5059932;27;129668;-74
2022/06/05 04:12:03;;;;;;;9.38;6.32;;;13.20;1.00;;;15.06;88.86;99557.56;5059142;27;130245;-74
2022/06/05 04:14:32;;;;;;;8.48;6.70;;;13.30;1.00;;;14.94;89.75;99549.34;5043283;27;119645;-75
2022/06/05 04:17:01;;;;;;;6.70;5.93;;;13.40;1.00;;;15.16;90.67;99556.34;5060615;27;118638;-76
2022/06/05 04:19:30;;;;;;;8.43;5.80;;;13.60;1.00;;;15.16;89.17;99555.50;5058015;27;129782;-73
2022/06/05 04:22:00;;;;;;;10.75;6.22;;;13.60;1.00;;;15.31;89.75;99557.56;5062984;27;128234;-74
2022/06/05 04:24:29;;;;;;;7.22;6.07;;;13.80;1.00;;;15.47;88.20;99560.41;5060519;27;122481;-75
2022/06/05 04:26:58;;;;;;;7.13;6.00;;;13.90;1.00;;;15.88;87.53;99568.72;5061626;27;122200;-73
2022/06/05 04:29:27;;;;;;;7.25;5.60;;;14.20;1.00;;;15.84;85.25;99567.81;5063450;27;129832;-71
2022/06/05 04:31:55;;;;;;;7.45;6.05;;;13.90;1.00;;;15.35;87.36;99566.69;5061504;27;129111;-74
2022/06/05 04:34:24;;;;;;;8.10;5.60;;;13.90;1.00;;;15.37;87.74;99572.63;5063117;27;120453;-75
2022/06/05 04:36:54;;;;;;;8.55;5.65;;;14.00;1.00;;;15.55;87.43;99562.25;5061289;27;119416;-75
2022/06/05 04:39:24;;;;;;;7.55;5.57;;;14.20;1.00;;;15.32;88.43;99569.28;5062827;27;129453;-74
2022/06/05 04:41:53;;;;;;;6.50;5.65;;;14.20;1.00;;;15.29;89.37;99559.88;5061446;27;129482;-75
2022/06/05 04:44:22;;;;;;;6.75;5.78;;;14.20;1.00;;;15.41;87.51;99565.34;5061607;27;119773;-73
2022/06/05 04:46:53;;;;;;;6.90;6.10;;;14.30;1.00;;;15.50;85.91;99565.19;5061234;27;119700;-74
2022/06/05 04:49:21;;;;;;;8.90;6.18;;;14.30;1.00;;;15.41;88.28;99573.53;5059546;27;129938;-71
2022/06/05 04:51:50;;;;;;;10.50;5.80;;;14.40;1.00;;;15.54;86.18;99576.28;5061018;27;129316;-75
2022/06/05 04:54:18;;;;;;;7.70;6.18;;;14.40;1.00;;;15.71;87.42;99570.53;5063137;27;119248;-74
2022/06/05 04:56:48;;;;;;;7.72;6.38;;;14.70;1.00;;;15.82;85.57;99573.63;5061243;27;119153;-78
2022/06/05 04:59:16;;;;;;;8.13;6.07;;;14.70;1.00;;;15.98;84.56;99571.75;5063327;27;130558;-74
2022/06/05 05:01:45;;;;;;;7.57;6.70;;;14.80;1.00;;;15.98;85.14;99573.72;5062610;27;128492;-74
2022/06/05 05:04:15;;;;;;;7.28;5.97;;;14.90;1.00;;;15.73;84.73;99572.94;5063554;27;120164;-76
2022/06/05 05:06:45;;;;;;;7.00;6.30;;;14.80;1.00;;;16.01;83.26;99570.28;5063993;27;120151;-73
2022/06/05 05:09:14;;;;;;;8.30;6.07;;;14.90;1.00;;;16.20;80.92;99574.34;5063114;27;129380;-76
2022/06/05 05:11:44;;;;;;;7.72;5.88;;;15.00;1.00;;;16.31;80.00;99579.00;5062565;27;129780;-75
2022/06/05 05:14:14;;;;;;;6.68;5.47;;;15.00;1.00;;;16.29;79.67;99577.72;5059742;27;121733;-74
2022/06/05 05:16:43;;;;;;;7.72;5.72;;;15.20;1.00;;;15.84;81.57;99584.25;5060763;27;121628;-72
2022/06/05 05:19:12;;;;;;;9.90;5.97;;;15.00;1.00;;;16.42;81.65;99587.47;5060578;27;130626;-78
2022/06/05 05:21:40;;;;;;;7.28;5.93;;;15.40;1.00;;;16.40;80.66;99589.00;5062915;27;128517;-75
2022/06/05 05:24:09;;;;;;;6.50;5.22;;;15.40;1.00;;;16.56;80.08;99581.59;5062660;27;118962;-75
2022/06/05 05:26:38;;;;;;;7.45;5.63;;;15.50;1.00;;;16.39;78.87;99582.69;5060723;27;120089;-76
2022/06/05 05:29:07;;;;;;;6.97;5.60;;;15.50;1.00;;;16.51;77.22;99584.59;5079992;27;129984;-75
2022/06/05 05:31:42;;;;;;;6.35;5.53;;;15.50;1.00;;;16.79;77.93;99581.81;5076939;27;129345;-76
2022/06/05 05:34:11;;;;;;;7.53;5.75;;;15.60;1.00;;;17.05;78.62;99586.06;5060620;27;119517;-74
2022/06/05 05:36:40;;;;;;;7.93;5.20;;;15.90;1.00;;;17.40;76.01;99574.38;5060937;27;119916;-74
2022/06/05 05:42:07;;;;;;;5.77;4.60;;;16.00;1.00;;;17.25;75.22;99579.50;5060074;27;129968;-72
2022/06/05 05:44:41;;;;;;;6.15;4.80;;;16.10;99.90;;;17.75;74.04;99579.09;5060156;27;119558;-76
2022/06/05 05:47:14;;;;;;;7.03;5.07;;;16.30;1.00;;;17.74;73.45;99577.50;5060633;27;119507;-77
2022/06/05 05:49:42;;;;;;;7.55;5.30;;;16.40;99.90;;;17.63;73.47;99581.97;5059447;27;130111;-76
2022/06/05 05:52:12;;;;;;;9.98;5.18;;;16.50;99.90;;;17.33;73.58;99585.19;5061969;27;129250;-73
2022/06/05 05:54:41;;;;;;;7.40;5.05;;;16.30;99.90;;;17.72;73.78;99585.31;5062138;27;118879;-73
2022/06/05 05:57:09;;;;;;;6.88;4.93;;;16.60;99.90;;;18.20;70.19;99580.50;5059022;27;119759;-75
2022/06/05 05:59:38;;;;;;;6.78;4.93;;;16.50;99.90;;;18.04;71.20;99585.22;5061560;27;129013;-75
2022/06/05 06:02:11;;;;;;;6.35;4.25;;;16.50;99.90;;;17.99;69.51;99589.06;5061592;27;129525;-76
2022/06/05 06:04:42;;;;;;;6.43;4.70;;;16.60;99.90;;;17.78;69.53;99589.38;5057636;27;121683;-75
2022/06/05 06:07:11;;;;;;;6.13;4.35;;;16.70;99.90;;;17.94;68.80;99592.88;5060053;27;122693;-75
2022/06/05 06:09:40;;;;;;;7.90;4.95;;;16.80;99.90;;;17.79;69.10;99591.75;5059589;27;130309;-74
2022/06/05 06:12:09;;;;;;;7.32;4.90;;;16.70;99.90;;;17.92;70.04;99589.72;5061669;27;129156;-76
2022/06/05 06:14:39;;;;;;;5.90;4.70;;;16.90;99.90;;;18.27;68.91;99591.59;5059671;27;119457;-74
2022/06/05 06:17:07;;;;;;;6.30;4.82;;;16.90;99.90;;;18.47;67.43;99597.13;5059841;27;120014;-72
2022/06/05 06:19:36;;;;;;;5.68;4.10;;;17.00;99.90;;;18.14;66.53;99592.91;5061576;27;129065;-73
2022/06/05 06:22:07;;;;;;;7.00;4.72;;;17.00;99.90;;;18.24;65.65;99595.06;5061990;27;129789;-74
2022/06/05 06:24:36;;;;;;;7.70;4.53;;;17.20;99.90;;;18.31;66.28;99594.44;5062142;27;118502;-76
2022/06/05 06:27:05;;;;;;;6.57;4.88;;;17.10;99.90;;;18.41;65.83;99598.56;5061304;27;120399;-73
2022/06/05 06:29:35;;;;;;;6.45;4.47;;;17.10;99.90;;;18.38;65.33;99582.78;5058419;27;129719;-76
2022/06/05 06:32:04;;;;;;;6.75;4.57;;;17.20;99.90;;;18.33;66.52;99584.66;5059341;27;129308;-75
2022/06/05 06:34:33;;;;;;;7.28;4.80;;;17.10;99.90;;;18.54;64.61;99586.25;5061591;27;118883;-75
2022/06/05 06:37:01;;;;;;;6.18;5.10;;;17.30;99.90;;;18.58;65.44;99587.13;5059904;27;119299;-79
2022/06/05 06:39:32;;;;;;;7.65;4.93;;;17.40;99.90;;;18.65;64.17;99580.94;5059164;27;130156;-75
2022/06/05 06:42:00;;;;;;;6.90;4.40;;;17.50;99.90;;;18.65;63.73;99589.19;5061432;27;129029;-73
2022/06/05 06:44:29;;;;;;;7.43;4.88;;;17.60;99.90;;;18.91;61.02;99583.03;5059089;27;119744;-76
2022/06/05 06:46:57;;;;;;;7.80;4.90;;;17.60;99.90;;;19.27;59.69;99591.91;5059967;27;119623;-76
2022/06/05 06:49:26;;;;;;;6.65;4.18;;;17.50;99.90;;;19.32;58.34;99586.09;5061085;27;128987;-72
2022/06/05 06:51:55;;;;;;;7.05;4.72;;;17.80;99.90;;;18.81;58.71;99589.13;5059062;27;130717;-73
2022/06/05 06:54:24;;;;;;;5.13;3.67;;;17.60;99.90;;;19.24;58.70;99581.63;5057971;27;121879;-71
2022/06/05 06:56:55;;;;;;;5.57;3.50;;;17.90;99.90;;;19.29;56.26;99586.84;5054970;27;122062;-74
2022/06/05 06:59:27;;;;;;;8.25;4.45;;;18.10;99.90;;;18.81;61.05;99589.91;5058392;27;129510;-74
2022/06/05 07:01:56;;;;;;;6.75;3.83;;;17.90;99.90;;;18.33;59.95;99592.91;5060018;27;129190;-72
2022/06/05 07:04:24;;;;;;;5.32;4.10;;;17.50;99.90;;;18.97;60.06;99576.06;5060852;27;120073;-73
2022/06/05 07:06:53;;;;;;;6.03;3.75;;;17.80;99.90;;;19.45;58.06;99588.66;5059923;27;120001;-72
2022/06/05 07:09:22;;;;;;;6.45;3.53;;;18.20;99.90;;;18.63;57.31;99595.06;5058892;27;130202;-75
2022/06/05 07:11:50;;;;;;;7.00;4.00;;;17.70;99.90;;;18.46;58.66;99601.00;5057131;27;129751;-73
2022/06/05 07:14:20;;;;;;;6.00;3.47;;;17.70;99.90;;;19.10;56.96;99595.94;5043302;27;119921;-71
2022/06/05 07:16:49;;;;;;;6.32;4.28;;;18.20;99.90;;;19.44;57.88;99595.31;5058104;27;119963;-75
2022/06/05 07:19:18;;;;;;;5.88;3.55;;;18.40;99.90;;;19.52;55.43;99602.50;5048926;27;129850;-75
2022/06/05 07:21:47;;;;;;;5.38;3.90;;;18.50;99.90;;;19.44;55.80;99587.06;5068718;27;129862;-73
2022/06/05 07:24:16;;;;;;;4.82;3.40;;;18.40;99.90;;;19.58;55.49;99609.28;5054138;27;119690;-72
2022/06/05 07:26:45;;;;;;;6.15;3.53;;;18.50;99.90;;;19.53;52.88;99606.88;5040284;27;119308;-73
2022/06/05 07:29:13;;;;;;;5.88;3.45;;;18.40;99.90;;;19.78;53.27;99600.97;5038082;27;130992;-73
2022/06/05 07:31:43;;;;;;;7.30;4.07;;;18.70;99.90;;;20.29;49.95;99597.72;5037976;27;129926;-71
2022/06/05 07:34:13;;;;;;;5.28;3.72;;;18.80;99.90;;;20.59;48.89;99591.38;5038163;27;119870;-75
2022/06/05 07:36:41;;;;;;;5.32;3.67;;;19.00;99.90;;;20.07;51.96;99602.97;5038750;27;119438;-72
2022/06/05 07:39:10;;;;;;;5.60;3.85;;;18.60;99.90;;;19.81;54.67;99589.22;5022523;27;128561;-74
2022/06/05 07:41:39;;;;;;;5.93;3.70;;;18.60;99.90;;;19.97;53.53;99584.31;5018144;27;128657;-74
2022/06/05 07:44:08;;;;;;;6.90;3.58;;;18.90;99.90;;;19.79;51.59;99597.03;5038956;27;121810;-72
2022/06/05 07:46:37;;;;;;;6.07;4.03;;;18.70;99.90;;;19.85;50.88;99601.88;5038007;27;122561;-74
2022/06/05 07:49:08;;;;;;;7.05;4.20;;;18.80;99.90;;;20.52;50.87;99602.31;5019065;27;129417;-74
2022/06/05 07:54:29;;;;;;;5.38;3.55;;;18.50;99.90;;;20.45;49.75;99601.06;5054627;27;119656;-75
2022/06/05 07:57:00;;;;;;;6.63;4.30;;;19.00;99.90;;;20.58;50.39;99592.53;5041798;27;119641;-74
2022/06/05 07:59:33;;;;;;;7.60;4.35;;;19.30;99.90;;;20.33;50.85;99604.06;5043485;27;130092;-75
2022/06/05 08:02:05;;;;;;;5.53;3.72;;;18.90;99.90;;;20.68;51.16;99591.91;5042534;27;129456;-74
2022/06/05 08:04:37;;;;;;;7.10;4.00;;;19.20;99.90;;;20.65;49.29;99592.66;5041137;27;119501;-74
2022/06/05 08:07:10;;;;;;;6.07;4.10;;;19.20;99.90;;;20.63;47.99;99595.75;5041157;27;119999;-74
2022/06/05 08:09:41;;;;;;;5.50;3.80;;;19.10;99.90;;;21.24;47.38;99589.25;5039565;27;130128;-73
2022/06/05 08:12:12;;;;;;;6.00;4.38;;;19.60;99.90;;;21.45;46.88;99597.72;5044331;27;130159;-74
2022/06/05 08:14:43;;;;;;;6.95;4.28;;;19.70;99.90;;;20.47;50.50;99593.22;5026234;27;118300;-74
2022/06/05 08:17:17;;;;;;;8.02;4.45;;;19.10;99.90;;;20.09;52.42;99594.31;5041209;27;119580;-74
2022/06/05 08:19:48;;;;;;;5.93;4.10;;;18.80;99.90;;;20.01;50.74;99598.94;5018615;27;129564;-74
2022/06/05 08:22:21;;;;;;;8.25;4.40;;;18.70;99.90;;;20.25;50.56;99588.59;5040951;27;129906;-77
2022/06/05 08:24:52;;;;;;;5.78;4.13;;;19.10;99.90;;;20.18;51.63;99591.25;5040917;27;119990;-70
2022/06/05 08:27:26;;;;;;;5.82;4.10;;;18.90;99.90;;;20.73;51.77;99594.31;5041393;27;119762;-73
2022/06/05 08:29:56;;;;;;;6.65;4.22;;;19.40;99.90;;;20.56;49.37;99590.16;5040130;27;129805;-73
2022/06/05 08:32:28;;;;;;;6.47;3.80;;;19.30;99.90;;;20.26;49.96;99587.44;5042731;27;128483;-72
2022/06/05 08:34:58;;;;;;;5.13;3.70;;;19.10;99.90;;;20.67;48.58;99582.03;5024649;27;121137;-74
2022/06/05 08:43:27;;;;;;;7.20;4.00;;;19.30;99.90;;;20.86;49.19;99591.28;5038186;27;129722;-73
2022/06/05 08:46:12;;;;;;;5.22;3.80;;;19.60;99.90;;;20.90;47.52;99603.16;5040926;27;119605;-74
2022/06/05 08:48:50;;;;;;;4.68;3.45;;;19.60;99.90;;;21.34;45.32;99588.56;5042613;27;118842;-73
2022/06/05 08:51:34;;;;;;;5.90;3.72;;;19.70;99.90;;;21.33;47.40;99593.28;5040169;27;130064;-74
2022/06/05 08:54:07;;;;;;;5.90;4.10;;;19.60;99.90;;;21.66;47.19;99594.34;5040695;27;130577;-72
2022/06/05 08:56:40;;;;;;;5.82;3.75;;;19.80;99.90;;;22.20;47.13;99594.63;5041080;27;120176;-73
2022/06/05 08:59:18;;;;;;;6.55;4.35;;;20.40;99.90;;;22.66;44.44;99597.97;5040648;27;120100;-73
2022/06/05 09:01:58;;;;;;;8.73;4.07;;;20.10;99.90;;;21.99;47.04;99605.59;5040157;27;129503;-78
2022/06/05 09:04:49;;;;;;;4.68;3.35;;;20.20;99.90;;;22.33;43.71;99602.59;5042926;27;129907;-76
2022/06/05 09:07:25;;;;;;;7.30;4.20;;;19.50;99.90;;;22.31;44.51;99604.97;5041688;27;119146;-73
2022/06/05 09:10:00;;;;;;;5.60;4.05;;;20.10;99.90;;;22.32;45.64;99598.28;5042478;27;119498;-71
2022/06/05 09:12:37;;;;;;;7.10;3.67;;;20.60;99.90;;;22.06;44.38;99594.56;5041279;27;129185;-74
2022/06/05 09:15:16;;;;;;;5.18;3.40;;;20.20;99.90;;;22.11;43.38;99602.50;5038414;27;129882;-75
2022/06/05 09:17:54;;;;;;;7.43;3.53;;;20.20;99.90;;;21.68;46.67;99596.72;5042023;27;119711;-75
2022/06/05 09:20:36;;;;;;;5.18;3.58;;;20.00;99.90;;;21.71;46.86;99602.25;5039873;27;119704;-74
2022/06/05 09:23:15;;;;;;;5.53;3.70;;;20.20;99.90;;;21.52;46.71;99599.78;5038759;27;130527;-74
2022/06/05 09:25:54;;;;;;;5.20;3.63;;;19.90;99.90;;;22.33;46.95;99595.13;5041640;27;129978;-74
2022/06/05 09:28:55;;;;;;;5.22;3.08;;;20.60;99.90;;;22.26;45.25;99593.06;5022040;27;120897;-76
2022/06/05 09:32:17;;;;;;;5.63;3.75;;;20.50;99.90;;;21.81;48.29;99594.44;5040127;27;123185;-73
2022/06/05 09:34:52;;;;;;;5.35;3.58;;;20.10;99.90;;;21.41;47.35;99594.16;5039717;27;131349;-72
2022/06/05 09:37:28;;;;;;;4.67;3.20;;;20.10;99.90;;;21.05;48.44;99593.03;5039682;27;129725;-71
2022/06/05 09:40:04;;;;;;;5.85;3.28;;;19.70;99.90;;;21.51;46.68;99593.44;5042312;27;118528;-70
2022/06/05 09:42:48;;;;;;;;;;;19.90;99.90;;;21.69;47.14;99588.06;5042465;27;119215;-74
2022/06/05 09:45:44;;;;;;;6.68;3.53;;;20.40;99.90;;;22.57;44.39;99579.78;5038340;27;130375;-74
2022/06/05 09:48:26;;;;;;;7.65;2.95;;;20.80;99.90;;;22.89;44.66;99579.09;5039122;27;130657;-79
2022/06/05 09:50:55;;;;;;;4.35;2.70;;;21.00;99.90;;;22.14;44.86;99590.66;5041552;27;118882;-73
2022/06/05 09:53:44;;;;;;;4.10;2.80;;;20.50;99.90;;;22.18;42.76;99585.94;5039564;27;119817;-74
2022/06/05 09:56:29;;;;;;;4.25;2.95;;;20.60;99.90;;;22.11;43.86;99590.66;5037740;27;129963;-74
2022/06/05 09:59:17;;;;;;;4.05;2.33;;;20.60;99.90;;;21.74;42.25;99595.19;5041483;27;128923;-75
2022/06/05 10:01:54;;;;;;;3.47;2.17;;;20.50;99.90;;;21.53;42.10;99591.13;5020243;27;119234;-77
2022/06/05 10:04:28;;;;;;;5.68;2.55;;;20.30;99.90;;;22.31;42.30;99585.63;5039981;27;119441;-77
2022/06/05 10:07:05;;;;;;;5.70;2.58;;;20.90;99.90;;;22.55;41.82;99581.38;5041144;27;129354;-75
2022/06/05 10:09:44;;;;;;;6.75;3.03;;;20.80;99.90;;;21.88;45.22;99588.97;5040637;27;129193;-73
2022/06/05 10:12:25;;;;;;;4.40;2.88;;;20.40;99.90;;;21.81;44.60;99583.38;5040774;27;118891;-73
2022/06/05 10:15:00;;;;;;;4.65;3.03;;;20.50;99.90;;;21.78;45.22;99590.47;5041282;27;119676;-73
2022/06/05 10:17:50;;;;;;;5.43;3.15;;;20.50;99.90;;;22.34;44.62;99595.91;5038868;27;131513;-74
2022/06/05 10:20:47;;;;;;;4.85;2.85;;;20.60;99.90;;;21.76;45.21;99587.31;5058122;27;129215;-76
2022/06/05 10:23:35;;;;;;;4.28;2.63;;;20.40;99.90;;;21.88;43.16;99600.78;5040126;27;120972;-75
2022/06/05 10:26:20;;;;;;;5.63;3.08;;;20.50;99.90;;;21.96;42.95;99595.31;5039346;27;121916;-72
2022/06/05 10:28:55;;;;;;;6.07;2.95;;;20.60;99.90;;;22.17;42.70;99595.41;5038829;27;130272;-73
2022/06/05 10:31:32;;;;;;;5.22;2.67;;;20.70;99.90;;;21.88;43.72;99598.03;5040728;27;129039;-74
2022/06/05 10:34:13;;;;;;;3.55;2.42;;;20.50;99.90;;;21.75;43.05;99596.75;5041084;27;118517;-74
2022/06/05 10:37:12;;;;;;;4.63;2.40;;;20.60;99.90;;;21.68;42.35;99602.25;5024276;27;118303;-75
2022/06/05 10:39:58;;;;;;;3.47;2.25;;;20.50;99.90;;;21.69;42.46;99593.59;5014136;27;129874;-77
2022/06/05 10:42:39;;;;;;;4.28;2.63;;;20.40;99.90;;;22.26;43.24;99595.06;5039449;27;129392;-76
2022/06/05 10:45:31;;;;;;;4.97;2.60;;;20.80;99.90;;;22.71;43.18;99589.31;5039052;27;119746;-73
2022/06/05 10:48:19;;;;;;;4.45;2.70;;;21.10;99.90;;;23.30;42.11;99586.25;5038802;27;119470;-72
2022/06/05 10:50:55;;;;;;;4.20;3.00;;;20.90;99.90;;;23.65;40.99;99585.44;5022631;27;129862;-74
2022/06/05 10:53:36;;;;;;;4.75;2.58;;;21.20;99.90;;;23.29;42.04;99590.97;5034372;27;129020;-75
2022/06/05 10:56:24;;;;;;;4.78;2.50;;;20.90;99.90;;;22.19;43.22;99592.25;5038917;27;119963;-77